createdAt,value
2018-07-27T00:00:34.157Z,70.00
2018-07-27T00:05:37.342Z,69.50
2018-07-27T00:10:40.531Z,71.70
2018-07-27T00:15:43.702Z,72.80
2018-07-27T00:20:47.014Z,71.40
2018-07-27T00:25:50.201Z,70.60
2018-07-27T00:30:53.373Z,67.60
2018-07-27T00:35:56.560Z,67.80
2018-07-27T00:40:59.760Z,70.80
2018-07-27T00:46:02.950Z,68.90
2018-07-27T00:51:06.145Z,69.60
2018-07-27T00:56:09.318Z,69.60
2018-07-27T01:01:12.493Z,71.20
2018-07-27T01:06:15.637Z,71.00
2018-07-27T01:11:18.785Z,71.00
2018-07-27T01:16:21.917Z,68.40
2018-07-27T01:21:25.143Z,68.90
2018-07-27T01:26:28.473Z,70.20
2018-07-27T01:31:31.593Z,70.20
2018-07-27T01:36:34.738Z,70.70
2018-07-27T01:41:37.890Z,71.50
2018-07-27T01:46:41.542Z,71.80
2018-07-27T01:51:44.702Z,71.60
2018-07-27T01:56:48.962Z,72.80
2018-07-27T02:01:52.146Z,74.30
2018-07-27T02:06:55.400Z,73.40
2018-07-27T02:11:58.552Z,73.90
2018-07-27T02:17:01.712Z,74.20
2018-07-27T02:22:04.881Z,77.80
2018-07-27T02:27:08.046Z,78.40
2018-07-27T02:32:11.245Z,77.00
2018-07-27T02:37:14.414Z,78.30
2018-07-27T02:42:17.746Z,79.70
2018-07-27T02:47:20.887Z,80.20
2018-07-27T02:52:24.049Z,80.80
2018-07-27T02:57:27.204Z,81.30
2018-07-27T03:02:30.388Z,81.60
2018-07-27T03:07:33.562Z,81.80
2018-07-27T03:12:36.727Z,82.10
2018-07-27T03:17:39.898Z,81.50
2018-07-27T03:22:43.082Z,82.00
2018-07-27T03:27:46.256Z,83.00
2018-07-27T03:32:49.453Z,83.10
2018-07-27T03:37:53.262Z,83.60
2018-07-27T03:42:56.452Z,83.60
2018-07-27T03:47:59.665Z,83.10
2018-07-27T03:53:02.979Z,83.10
2018-07-27T03:58:06.162Z,82.70
2018-07-27T04:03:09.349Z,84.20
2018-07-27T04:08:12.524Z,84.50
2018-07-27T04:13:15.677Z,83.20
2018-07-27T04:18:18.861Z,84.90
2018-07-27T04:23:22.058Z,83.60
2018-07-27T04:28:25.210Z,83.40
2018-07-27T04:33:28.382Z,84.70
2018-07-27T04:38:31.544Z,83.90
2018-07-27T04:43:34.726Z,83.30
2018-07-27T04:48:37.937Z,83.90
2018-07-27T04:53:43.169Z,84.30
2018-07-27T04:58:46.327Z,84.40
2018-07-27T05:03:49.518Z,86.00
2018-07-27T05:08:58.168Z,85.50
2018-07-27T05:14:01.385Z,85.80
2018-07-27T05:19:04.593Z,85.90
2018-07-27T05:24:07.854Z,87.50
2018-07-27T05:29:11.088Z,88.10
2018-07-27T05:34:14.274Z,87.90
2018-07-27T05:39:17.427Z,87.30
2018-07-27T05:44:20.734Z,86.40
2018-07-27T05:49:25.075Z,86.00
2018-07-27T05:54:28.358Z,86.20
2018-07-27T05:59:31.561Z,86.50
2018-07-27T06:04:34.718Z,85.70
2018-07-27T06:09:37.892Z,84.90
2018-07-27T06:14:41.155Z,85.60
2018-07-27T06:19:44.358Z,84.80
2018-07-27T06:24:49.118Z,83.10
2018-07-27T06:29:53.112Z,81.50
2018-07-27T06:34:56.284Z,81.30
2018-07-27T06:39:59.670Z,81.00
2018-07-27T06:45:02.844Z,81.20
2018-07-27T06:50:09.190Z,81.30
2018-07-27T06:55:12.346Z,81.30
2018-07-27T07:00:15.637Z,81.50
2018-07-27T07:05:18.833Z,79.30
2018-07-27T07:10:22.003Z,80.00
2018-07-27T07:15:25.197Z,78.80
2018-07-27T07:20:28.444Z,78.00
2018-07-27T07:25:31.780Z,77.50
2018-07-27T07:30:34.806Z,74.40
2018-07-27T07:35:37.989Z,75.90
2018-07-27T07:40:41.243Z,75.30
2018-07-27T07:45:44.433Z,71.60
2018-07-27T07:50:47.698Z,71.80
2018-07-27T07:55:50.958Z,71.50
2018-07-27T08:00:54.129Z,69.50
2018-07-27T08:05:57.378Z,68.60
2018-07-27T08:11:01.589Z,67.00
2018-07-27T08:16:04.850Z,65.60
2018-07-27T08:21:10.161Z,67.00
2018-07-27T08:26:57.093Z,59.40
2018-07-27T08:32:00.745Z,59.40
2018-07-27T08:37:04.511Z,56.30
2018-07-27T08:42:08.898Z,56.80
2018-07-27T08:47:12.146Z,53.20
2018-07-27T08:52:16.365Z,51.60
2018-07-27T08:57:19.726Z,51.30
2018-07-27T09:02:22.921Z,50.70
2018-07-27T09:07:26.110Z,49.20
2018-07-27T09:12:29.300Z,49.50
2018-07-27T09:17:33.518Z,50.70
2018-07-27T09:22:36.662Z,48.40
2018-07-27T09:27:40.632Z,43.10
2018-07-27T09:32:43.819Z,44.10
2018-07-27T09:37:47.074Z,43.90
2018-07-27T09:42:51.406Z,45.00
2018-07-27T09:47:54.633Z,44.00
2018-07-27T09:52:58.828Z,44.10
2018-07-27T09:58:02.114Z,42.30
2018-07-27T10:03:05.510Z,43.10
2018-07-27T10:08:08.778Z,42.70
2018-07-27T10:13:11.961Z,43.00
2018-07-27T10:18:15.137Z,42.60
2018-07-27T10:23:18.297Z,41.50
2018-07-27T10:28:24.672Z,40.80
2018-07-27T10:33:27.949Z,41.30
2018-07-27T10:38:32.246Z,41.00
2018-07-27T10:43:35.448Z,40.00
2018-07-27T10:48:39.343Z,40.20
2018-07-27T10:53:42.560Z,37.70
2018-07-27T10:58:45.813Z,35.00
2018-07-27T11:03:49.078Z,35.80
2018-07-27T11:08:52.365Z,37.50
2018-07-27T11:13:55.665Z,35.40
2018-07-27T11:18:58.954Z,35.50
2018-07-27T11:24:02.214Z,34.80
2018-07-27T11:29:05.497Z,34.80
2018-07-27T11:34:08.769Z,34.20
2018-07-27T11:44:16.469Z,34.40
2018-07-27T11:49:19.674Z,33.20
2018-07-27T11:54:23.171Z,32.00
2018-07-27T11:59:28.476Z,32.30
2018-07-27T12:04:32.990Z,33.30
2018-07-27T12:09:36.778Z,31.90
2018-07-27T12:14:40.277Z,32.90
2018-07-27T12:19:43.280Z,31.60
2018-07-27T12:24:46.437Z,31.40
2018-07-27T12:29:49.669Z,32.80
2018-07-27T12:34:53.205Z,31.60
2018-07-27T12:39:56.493Z,31.50
2018-07-27T12:45:00.039Z,31.90
2018-07-27T12:50:03.206Z,31.40
2018-07-27T12:55:06.958Z,31.70
2018-07-27T13:00:10.479Z,30.70
2018-07-27T13:05:14.689Z,31.50
2018-07-27T13:15:21.777Z,32.00
2018-07-27T13:20:30.486Z,32.20
2018-07-27T13:25:33.638Z,31.70
2018-07-27T13:30:36.945Z,31.00
2018-07-27T13:35:40.471Z,30.60
2018-07-27T13:40:44.525Z,30.90
2018-07-27T13:45:47.841Z,31.10
2018-07-27T13:50:51.620Z,30.50
2018-07-27T13:55:55.430Z,30.70
2018-07-27T14:00:59.229Z,30.60
2018-07-27T14:06:02.387Z,31.20
2018-07-27T14:11:05.585Z,30.70
2018-07-27T14:16:08.798Z,31.30
2018-07-27T14:21:11.985Z,30.80
2018-07-27T14:26:15.211Z,30.00
2018-07-27T14:31:18.443Z,30.20
2018-07-27T14:36:21.897Z,30.80
2018-07-27T14:41:28.399Z,30.50
2018-07-27T14:46:32.946Z,30.00
2018-07-27T14:51:36.313Z,30.70
2018-07-27T14:56:40.466Z,31.40
2018-07-27T15:01:43.826Z,30.90
2018-07-27T15:06:46.987Z,30.40
2018-07-27T15:11:50.188Z,31.40
2018-07-27T15:16:53.426Z,31.20
2018-07-27T15:21:56.591Z,31.10
2018-07-27T15:27:00.803Z,30.90
2018-07-27T15:32:04.190Z,31.60
2018-07-27T15:37:07.375Z,32.20
2018-07-27T15:42:10.600Z,31.40
2018-07-27T15:47:13.749Z,32.90
2018-07-27T15:52:16.937Z,31.50
2018-07-27T15:57:20.078Z,31.80
2018-07-27T16:02:23.249Z,32.40
2018-07-27T16:07:26.443Z,31.20
2018-07-27T16:12:29.637Z,32.70
2018-07-27T16:17:33.006Z,32.40
2018-07-27T16:22:36.180Z,33.10
2018-07-27T16:27:39.321Z,32.70
2018-07-27T16:32:42.598Z,32.90
2018-07-27T16:37:46.830Z,33.10
2018-07-27T16:42:50.041Z,33.50
2018-07-27T16:47:53.250Z,33.60
2018-07-27T16:52:56.470Z,34.20
2018-07-27T16:58:08.221Z,34.30
2018-07-27T17:03:11.453Z,34.70
2018-07-27T17:08:15.105Z,35.20
2018-07-27T17:13:18.333Z,35.50
2018-07-27T17:18:21.561Z,36.60
2018-07-27T17:23:24.736Z,35.70
2018-07-27T17:28:28.016Z,35.80
2018-07-27T17:33:31.182Z,36.50
2018-07-27T17:38:34.373Z,36.10
2018-07-27T17:43:37.524Z,36.50
2018-07-27T17:48:40.710Z,35.40
2018-07-27T17:53:43.878Z,35.60
2018-07-27T17:58:47.092Z,37.30
2018-07-27T18:03:50.255Z,35.60
2018-07-27T18:08:53.617Z,36.80
2018-07-27T18:13:57.097Z,37.00
2018-07-27T18:19:02.207Z,37.60
2018-07-27T18:24:05.802Z,38.00
2018-07-27T18:29:09.001Z,38.10
2018-07-27T18:34:12.253Z,38.50
2018-07-27T18:39:15.397Z,39.20
2018-07-27T18:44:18.670Z,39.70
2018-07-27T18:49:22.046Z,40.00
2018-07-27T18:54:25.293Z,39.90
2018-07-27T18:59:28.466Z,40.30
2018-07-27T19:04:31.717Z,40.80
2018-07-27T19:09:35.538Z,41.10
2018-07-27T19:19:43.926Z,42.60
2018-07-27T19:29:52.250Z,42.90
2018-07-27T19:34:55.655Z,43.10
2018-07-27T19:39:59.959Z,43.80
2018-07-27T19:45:05.143Z,44.70
2018-07-27T19:50:08.381Z,45.40
2018-07-27T19:55:13.026Z,47.20
2018-07-27T20:00:16.189Z,46.40
2018-07-27T20:05:20.712Z,45.90
2018-07-27T20:10:23.967Z,46.50
2018-07-27T20:15:27.181Z,47.40
2018-07-27T20:20:31.716Z,48.40
2018-07-27T20:25:34.849Z,48.20
2018-07-27T20:30:39.053Z,49.20
2018-07-27T20:35:42.374Z,50.10
2018-07-27T20:40:46.690Z,50.00
2018-07-27T20:45:49.876Z,51.50
2018-07-27T20:50:54.045Z,51.60
2018-07-27T20:55:57.193Z,52.30
2018-07-27T21:01:03.345Z,49.80
2018-07-27T21:06:07.919Z,52.60
2018-07-27T21:11:11.145Z,51.90
2018-07-27T21:16:15.998Z,52.20
2018-07-27T21:21:19.269Z,54.10
2018-07-27T21:26:22.465Z,54.90
2018-07-27T21:31:25.970Z,56.70
2018-07-27T21:36:29.579Z,55.80
2018-07-27T21:41:32.786Z,54.70
2018-07-27T21:46:36.047Z,58.30
2018-07-27T21:51:39.391Z,57.10
2018-07-27T21:56:42.509Z,57.10
2018-07-27T22:01:45.652Z,56.80
2018-07-27T22:06:48.869Z,56.30
2018-07-27T22:11:52.037Z,56.50
2018-07-27T22:16:55.600Z,56.60
2018-07-27T22:21:58.845Z,58.30
2018-07-27T22:27:01.997Z,60.90
2018-07-27T22:32:05.197Z,58.80
2018-07-27T22:37:08.478Z,62.10
2018-07-27T22:42:11.749Z,63.30
2018-07-27T22:47:14.901Z,60.60
2018-07-27T22:52:18.206Z,62.30
2018-07-27T22:57:21.565Z,63.90
2018-07-27T23:02:24.747Z,62.90
2018-07-27T23:07:27.988Z,63.90
2018-07-27T23:12:33.165Z,65.20
2018-07-27T23:17:36.390Z,66.50
2018-07-27T23:22:39.574Z,64.10
2018-07-27T23:27:42.818Z,67.20
2018-07-27T23:32:46.038Z,65.40
2018-07-27T23:37:49.441Z,66.00
2018-07-27T23:42:52.645Z,66.40
2018-07-27T23:47:56.054Z,67.40
2018-07-27T23:52:59.333Z,68.20
2018-07-27T23:58:02.493Z,66.40
